createdAt,value
2024-04-30T00:01:18.447Z,99796.69
2024-04-30T00:03:45.019Z,99792.70
2024-04-30T00:06:11.502Z,99788.77
2024-04-30T00:08:39.084Z,99785.75
2024-04-30T00:11:05.440Z,99782.45
2024-04-30T00:13:31.865Z,99778.75
2024-04-30T00:15:58.289Z,99776.67
2024-04-30T00:18:24.671Z,99778.16
2024-04-30T00:20:51.003Z,99781.70
2024-04-30T00:23:17.397Z,99781.20
2024-04-30T00:25:43.759Z,99780.67
2024-04-30T00:28:10.174Z,99774.02
2024-04-30T00:30:37.946Z,99771.73
2024-04-30T00:33:05.398Z,99764.59
2024-04-30T00:35:31.790Z,99762.80
2024-04-30T00:37:58.109Z,99767.08
2024-04-30T00:40:24.505Z,99767.55
2024-04-30T00:42:51.116Z,99769.02
2024-04-30T00:45:17.610Z,99767.48
2024-04-30T00:47:44.693Z,99768.34
2024-04-30T00:50:11.478Z,99768.73
2024-04-30T00:52:38.211Z,99768.58
2024-04-30T00:55:05.494Z,99767.34
2024-04-30T00:57:31.863Z,99767.77
2024-04-30T00:59:58.412Z,99768.92
2024-04-30T01:02:26.793Z,99764.97
2024-04-30T01:05:01.145Z,99767.44
2024-04-30T01:07:28.253Z,99765.29
2024-04-30T01:09:54.998Z,99761.10
2024-04-30T01:12:23.162Z,99760.85
2024-04-30T01:14:49.629Z,99758.96
2024-04-30T01:17:16.085Z,99760.00
2024-04-30T01:19:42.389Z,99757.69
2024-04-30T01:22:08.802Z,99754.52
2024-04-30T01:24:35.662Z,99756.03
2024-04-30T01:27:02.328Z,99755.72
2024-04-30T01:29:28.751Z,99755.94
2024-04-30T01:31:55.579Z,99758.40
2024-04-30T01:34:21.926Z,99755.89
2024-04-30T01:36:48.256Z,99754.02
2024-04-30T01:39:14.597Z,99755.91
2024-04-30T01:41:43.968Z,99755.99
2024-04-30T01:44:10.593Z,99757.70
2024-04-30T01:46:37.049Z,99760.14
2024-04-30T01:49:03.618Z,99760.02
2024-04-30T01:51:29.990Z,99754.36
2024-04-30T01:53:56.317Z,99754.30
2024-04-30T01:56:22.628Z,99755.02
2024-04-30T01:58:48.908Z,99747.97
2024-04-30T02:01:18.464Z,99751.59
2024-04-30T02:03:45.011Z,99753.22
2024-04-30T02:06:11.541Z,99753.19
2024-04-30T02:08:37.843Z,99751.71
2024-04-30T02:11:04.315Z,99749.45
2024-04-30T02:13:30.813Z,99742.20
2024-04-30T02:15:57.253Z,99741.79
2024-04-30T02:18:23.540Z,99742.36
2024-04-30T02:20:49.817Z,99738.56
2024-04-30T02:23:16.111Z,99737.28
2024-04-30T02:25:42.441Z,99734.09
2024-04-30T02:28:08.874Z,99735.38
2024-04-30T02:30:53.809Z,99732.15
2024-04-30T02:33:39.004Z,99732.42
2024-04-30T02:36:09.634Z,99730.74
2024-04-30T02:38:35.925Z,99731.49
2024-04-30T02:41:02.572Z,99731.34
2024-04-30T02:43:28.940Z,99735.33
2024-04-30T02:45:55.258Z,99730.51
2024-04-30T02:48:21.542Z,99726.84
2024-04-30T02:50:47.859Z,99720.54
2024-04-30T02:53:14.191Z,99725.44
2024-04-30T02:55:40.668Z,99724.71
2024-04-30T02:58:07.900Z,99724.33
2024-04-30T03:00:34.218Z,99722.92
2024-04-30T03:03:00.660Z,99720.90
2024-04-30T03:05:26.981Z,99717.36
2024-04-30T03:07:53.278Z,99718.58
2024-04-30T03:10:19.642Z,99716.52
2024-04-30T03:12:49.677Z,99712.92
2024-04-30T03:15:17.871Z,99706.98
2024-04-30T03:17:48.031Z,99704.66
2024-04-30T03:20:15.362Z,99703.92
2024-04-30T03:22:42.164Z,99706.00
2024-04-30T03:25:08.724Z,99708.27
2024-04-30T03:27:35.039Z,99711.70
2024-04-30T03:30:01.408Z,99709.13
2024-04-30T03:32:27.967Z,99711.89
2024-04-30T03:34:54.290Z,99710.25
2024-04-30T03:37:20.829Z,99710.75
2024-04-30T03:39:47.431Z,99713.89
2024-04-30T03:42:13.772Z,99706.95
2024-04-30T03:44:40.057Z,99704.45
2024-04-30T03:47:06.374Z,99705.27
2024-04-30T03:49:32.853Z,99700.01
2024-04-30T03:51:59.333Z,99696.66
2024-04-30T03:54:25.943Z,99701.36
2024-04-30T03:56:52.230Z,99702.67
2024-04-30T03:59:19.336Z,99701.84
2024-04-30T04:01:45.753Z,99699.14
2024-04-30T04:04:12.505Z,99695.59
2024-04-30T04:06:38.905Z,99690.72
2024-04-30T04:09:05.190Z,99687.52
2024-04-30T04:11:50.106Z,99692.53
2024-04-30T04:14:34.979Z,99690.56
2024-04-30T04:17:01.365Z,99688.55
2024-04-30T04:19:27.858Z,99685.69
2024-04-30T04:21:54.385Z,99687.91
2024-04-30T04:24:20.747Z,99686.14
2024-04-30T04:26:47.097Z,99686.10
2024-04-30T04:29:13.499Z,99684.45
2024-04-30T04:31:39.985Z,99683.16
2024-04-30T04:34:06.599Z,99686.18
2024-04-30T04:36:33.098Z,99686.08
2024-04-30T04:38:59.503Z,99689.50
2024-04-30T04:41:25.822Z,99688.53
2024-04-30T04:43:52.168Z,99683.30
2024-04-30T04:46:18.804Z,99693.20
2024-04-30T04:48:45.231Z,99693.38
2024-04-30T04:51:11.642Z,99692.23
2024-04-30T04:53:38.540Z,99695.84
2024-04-30T04:56:06.782Z,99692.27
2024-04-30T04:58:33.686Z,99691.23
2024-04-30T05:01:00.444Z,99699.51
2024-04-30T05:03:26.956Z,99704.89
2024-04-30T05:05:53.422Z,99708.60
2024-04-30T05:08:19.944Z,99712.08
2024-04-30T05:10:46.466Z,99707.48
2024-04-30T05:13:12.933Z,99707.37
2024-04-30T05:15:39.287Z,99706.27
2024-04-30T05:18:05.689Z,99708.80
2024-04-30T05:20:32.126Z,99710.52
2024-04-30T05:22:58.486Z,99712.45
2024-04-30T05:25:24.989Z,99709.73
2024-04-30T05:27:51.479Z,99705.41
2024-04-30T05:30:17.835Z,99702.54
2024-04-30T05:32:44.429Z,99699.95
2024-04-30T05:35:11.446Z,99700.64
2024-04-30T05:37:37.763Z,99697.91
2024-04-30T05:40:04.804Z,99698.44
2024-04-30T05:42:31.355Z,99694.91
2024-04-30T05:44:57.667Z,99695.58
2024-04-30T05:47:24.060Z,99687.52
2024-04-30T05:49:50.672Z,99685.35
2024-04-30T05:52:17.086Z,99693.23
2024-04-30T05:54:43.411Z,99689.84
2024-04-30T05:57:09.678Z,99690.68
2024-04-30T05:59:36.019Z,99688.90
2024-04-30T06:02:02.471Z,99684.10
2024-04-30T06:04:28.875Z,99680.53
2024-04-30T06:06:55.295Z,99684.71
2024-04-30T06:09:24.566Z,99684.63
2024-04-30T06:11:52.647Z,99682.52
2024-04-30T06:14:22.327Z,99681.42
2024-04-30T06:16:49.556Z,99680.39
2024-04-30T06:19:15.883Z,99678.08
2024-04-30T06:21:42.826Z,99672.34
2024-04-30T06:24:10.727Z,99674.97
2024-04-30T06:26:42.428Z,99674.77
2024-04-30T06:29:08.801Z,99678.23
2024-04-30T06:31:35.393Z,99673.75
2024-04-30T06:34:01.842Z,99675.92
2024-04-30T06:36:28.176Z,99671.65
2024-04-30T06:38:54.434Z,99670.04
2024-04-30T06:41:20.827Z,99670.27
2024-04-30T06:43:47.290Z,99669.22
2024-04-30T06:46:13.892Z,99672.21
2024-04-30T06:48:40.463Z,99668.82
2024-04-30T06:51:07.002Z,99660.08
2024-04-30T06:53:33.363Z,99653.98
2024-04-30T06:55:59.903Z,99650.61
2024-04-30T06:58:26.226Z,99652.79
2024-04-30T07:00:52.592Z,99649.11
2024-04-30T07:03:19.056Z,99653.05
2024-04-30T07:05:45.738Z,99651.77
2024-04-30T07:08:12.074Z,99652.23
2024-04-30T07:10:38.489Z,99648.19
2024-04-30T07:13:05.025Z,99650.23
2024-04-30T07:15:31.540Z,99653.33
2024-04-30T07:17:57.940Z,99652.47
2024-04-30T07:20:24.508Z,99653.49
2024-04-30T07:22:50.838Z,99651.48
2024-04-30T07:25:17.185Z,99653.23
2024-04-30T07:27:43.569Z,99651.89
2024-04-30T07:30:10.130Z,99653.00
2024-04-30T07:32:36.514Z,99656.02
2024-04-30T07:35:03.029Z,99650.89
2024-04-30T07:37:29.631Z,99651.80
2024-04-30T07:39:56.142Z,99651.61
2024-04-30T07:42:22.451Z,99646.22
2024-04-30T07:44:48.759Z,99650.45
2024-04-30T07:47:15.329Z,99652.89
2024-04-30T07:49:41.670Z,99651.33
2024-04-30T07:52:08.428Z,99649.08
2024-04-30T07:54:34.778Z,99645.42
2024-04-30T07:57:01.127Z,99639.12
2024-04-30T07:59:27.391Z,99643.52
2024-04-30T08:01:53.848Z,99641.00
2024-04-30T08:04:20.302Z,99641.40
2024-04-30T08:06:46.723Z,99637.73
2024-04-30T08:09:13.007Z,99636.95
2024-04-30T08:11:39.396Z,99633.61
2024-04-30T08:14:05.824Z,99631.47
2024-04-30T08:16:32.232Z,99632.59
2024-04-30T08:19:01.330Z,99631.98
2024-04-30T08:21:28.005Z,99630.86
2024-04-30T08:23:54.401Z,99632.94
2024-04-30T08:26:20.822Z,99629.30
2024-04-30T08:28:47.184Z,99621.31
2024-04-30T08:31:14.100Z,99624.13
2024-04-30T08:33:40.561Z,99621.13
2024-04-30T08:36:07.421Z,99625.41
2024-04-30T08:38:33.926Z,99617.22
2024-04-30T08:41:01.499Z,99612.52
2024-04-30T08:43:30.114Z,99610.22
2024-04-30T08:45:57.850Z,99603.08
2024-04-30T08:48:25.984Z,99604.19
2024-04-30T08:50:53.167Z,99608.73
2024-04-30T08:53:21.035Z,99611.19
2024-04-30T08:55:48.440Z,99607.48
2024-04-30T08:58:15.123Z,99602.80
2024-04-30T09:00:41.509Z,99600.97
2024-04-30T09:03:09.656Z,99605.94
2024-04-30T09:05:37.157Z,99599.70
2024-04-30T09:08:04.632Z,99603.87
2024-04-30T09:10:31.430Z,99599.27
2024-04-30T09:12:58.597Z,99598.77
2024-04-30T09:15:25.802Z,99594.42
2024-04-30T09:17:53.649Z,99591.30
2024-04-30T09:20:20.042Z,99585.14
2024-04-30T09:22:53.983Z,99585.48
2024-04-30T09:25:33.611Z,99579.73
2024-04-30T09:28:00.208Z,99574.29
2024-04-30T09:30:26.674Z,99571.78
2024-04-30T09:32:53.234Z,99573.50
2024-04-30T09:35:22.375Z,99573.53
2024-04-30T09:38:01.312Z,99570.54
2024-04-30T09:40:32.399Z,99563.00
2024-04-30T09:43:00.225Z,99557.39
2024-04-30T09:45:30.149Z,99552.17
2024-04-30T09:47:57.444Z,99553.14
2024-04-30T09:50:24.647Z,99551.73
2024-04-30T09:52:51.473Z,99545.41
2024-04-30T09:55:19.542Z,99545.02
2024-04-30T09:57:49.218Z,99537.14
2024-04-30T10:00:20.187Z,99536.94
2024-04-30T10:02:53.364Z,99534.17
2024-04-30T10:05:26.588Z,99536.36
2024-04-30T10:07:54.292Z,99540.20
2024-04-30T10:10:31.632Z,99531.11
2024-04-30T10:13:09.279Z,99527.20
2024-04-30T10:15:35.690Z,99525.75
2024-04-30T10:18:02.315Z,99520.36
2024-04-30T10:20:30.155Z,99515.67
2024-04-30T10:22:57.425Z,99511.09
2024-04-30T10:25:24.933Z,99509.75
2024-04-30T10:28:03.267Z,99503.66
2024-04-30T10:30:29.634Z,99501.98
2024-04-30T10:32:56.213Z,99498.06
2024-04-30T10:35:22.603Z,99496.45
2024-04-30T10:37:49.146Z,99492.48
2024-04-30T10:40:17.277Z,99490.41
2024-04-30T10:42:43.632Z,99489.14
2024-04-30T10:45:10.178Z,99484.04
2024-04-30T10:47:36.737Z,99480.52
2024-04-30T10:50:15.994Z,99479.57
2024-04-30T10:52:45.672Z,99475.04
2024-04-30T10:55:14.040Z,99471.40
2024-04-30T10:57:43.210Z,99461.47
2024-04-30T11:00:11.451Z,99457.79
2024-04-30T11:02:48.653Z,99451.96
2024-04-30T11:05:19.307Z,99444.42
2024-04-30T11:07:58.850Z,99442.36
2024-04-30T11:10:29.380Z,99439.90
2024-04-30T11:12:59.626Z,99436.07
2024-04-30T11:15:26.924Z,99432.25
2024-04-30T11:17:54.011Z,99429.26
2024-04-30T11:20:20.483Z,99425.85
2024-04-30T11:22:47.054Z,99422.73
2024-04-30T11:25:13.419Z,99416.40
2024-04-30T11:27:39.704Z,99410.80
2024-04-30T11:30:06.830Z,99413.02
2024-04-30T11:32:33.340Z,99409.19
2024-04-30T11:34:59.673Z,99403.48
2024-04-30T11:37:26.037Z,99401.21
2024-04-30T11:39:52.411Z,99401.68
2024-04-30T11:42:24.513Z,99392.87
2024-04-30T11:44:54.192Z,99390.23
2024-04-30T11:47:20.570Z,99384.44
2024-04-30T11:49:47.125Z,99383.48
2024-04-30T11:52:13.496Z,99380.69
2024-04-30T11:54:39.831Z,99374.49
2024-04-30T11:57:06.153Z,99371.97
2024-04-30T11:59:32.558Z,99367.25
2024-04-30T12:01:58.799Z,99365.55
2024-04-30T12:04:27.997Z,99354.79
2024-04-30T12:06:54.623Z,99348.95
2024-04-30T12:09:21.835Z,99345.05
2024-04-30T12:11:48.603Z,99339.73
2024-04-30T12:14:15.135Z,99329.59
2024-04-30T12:16:43.160Z,99329.61
2024-04-30T12:19:11.652Z,99325.51
2024-04-30T12:21:43.200Z,99322.52
2024-04-30T12:24:09.724Z,99322.71
2024-04-30T12:26:37.325Z,99317.59
2024-04-30T12:29:04.190Z,99320.63
2024-04-30T12:31:31.539Z,99315.41
2024-04-30T12:33:58.062Z,99316.14
2024-04-30T12:36:24.473Z,99315.01
2024-04-30T12:38:50.849Z,99308.57
2024-04-30T12:41:17.172Z,99310.75
2024-04-30T12:43:43.621Z,99311.94
2024-04-30T12:46:10.096Z,99307.85
2024-04-30T12:48:36.529Z,99301.67
2024-04-30T12:51:03.016Z,99292.46
2024-04-30T12:53:29.322Z,99290.97
2024-04-30T12:55:55.742Z,99292.11
2024-04-30T12:58:23.396Z,99287.16
2024-04-30T13:00:54.066Z,99289.24
2024-04-30T13:03:21.053Z,99283.47
2024-04-30T13:05:47.468Z,99282.30
2024-04-30T13:08:13.876Z,99273.95
2024-04-30T13:10:40.293Z,99269.63
2024-04-30T13:13:06.792Z,99265.62
2024-04-30T13:15:34.373Z,99259.46
2024-04-30T13:18:00.767Z,99255.20
2024-04-30T13:20:27.256Z,99253.77
2024-04-30T13:22:53.816Z,99250.10
2024-04-30T13:25:20.277Z,99248.55
2024-04-30T13:27:46.636Z,99243.59
2024-04-30T13:30:13.278Z,99240.59
2024-04-30T13:32:39.711Z,99236.14
2024-04-30T13:35:06.241Z,99230.81
2024-04-30T13:37:32.631Z,99229.97
2024-04-30T13:39:59.061Z,99223.67
2024-04-30T13:42:25.546Z,99221.13
2024-04-30T13:44:52.006Z,99219.27
2024-04-30T13:47:18.387Z,99212.98
2024-04-30T13:49:46.061Z,99207.48
2024-04-30T13:52:12.516Z,99206.64
2024-04-30T13:54:39.504Z,99202.44
2024-04-30T13:57:05.829Z,99199.80
2024-04-30T13:59:32.218Z,99198.41
2024-04-30T14:01:59.238Z,99195.28
2024-04-30T14:04:25.995Z,99195.83
2024-04-30T14:06:52.455Z,99193.97
2024-04-30T14:09:18.762Z,99187.77
2024-04-30T14:11:45.154Z,99185.25
2024-04-30T14:14:11.578Z,99183.23
2024-04-30T14:16:42.838Z,99178.89
2024-04-30T14:19:09.214Z,99175.38
2024-04-30T14:21:35.633Z,99167.48
2024-04-30T14:24:02.138Z,99170.47
2024-04-30T14:26:28.455Z,99165.16
2024-04-30T14:28:54.826Z,99166.08
2024-04-30T14:31:23.437Z,99158.92
2024-04-30T14:33:51.366Z,99151.20
2024-04-30T14:36:50.327Z,99156.32
2024-04-30T14:39:17.365Z,99155.55
2024-04-30T14:41:44.684Z,99147.78
2024-04-30T14:44:13.959Z,99150.63
2024-04-30T14:46:43.261Z,99148.47
2024-04-30T14:49:09.929Z,99145.08
2024-04-30T14:51:40.850Z,99139.27
2024-04-30T14:54:07.733Z,99140.69
2024-04-30T14:56:34.510Z,99139.16
2024-04-30T14:59:01.904Z,99132.82
2024-04-30T15:01:28.508Z,99128.13
2024-04-30T15:03:56.705Z,99126.48
2024-04-30T15:06:23.699Z,99126.09
2024-04-30T15:08:50.252Z,99121.85
2024-04-30T15:11:24.706Z,99119.88
2024-04-30T15:13:52.228Z,99115.70
2024-04-30T15:16:20.100Z,99110.49
2024-04-30T15:18:48.076Z,99110.45
2024-04-30T15:21:14.895Z,99108.97
2024-04-30T15:23:42.354Z,99105.17
2024-04-30T15:26:12.181Z,99104.52
2024-04-30T15:28:39.148Z,99102.35
2024-04-30T15:31:09.718Z,99097.26
2024-04-30T15:33:36.607Z,99094.91
2024-04-30T15:36:05.555Z,99094.55
2024-04-30T15:38:32.061Z,99091.27
2024-04-30T15:40:59.821Z,99086.83
2024-04-30T15:43:29.265Z,99085.95
2024-04-30T15:45:55.699Z,99087.97
2024-04-30T15:48:22.071Z,99088.23
2024-04-30T15:50:48.486Z,99089.65
2024-04-30T15:53:14.852Z,99084.13
2024-04-30T15:55:41.266Z,99081.20
2024-04-30T15:58:07.671Z,99074.68
2024-04-30T16:00:34.152Z,99072.27
2024-04-30T16:03:00.516Z,99070.09
2024-04-30T16:05:26.961Z,99070.48
2024-04-30T16:07:54.062Z,99070.52
2024-04-30T16:10:20.394Z,99066.65
2024-04-30T16:12:46.646Z,99062.79
2024-04-30T16:15:13.025Z,99063.34
2024-04-30T16:17:39.442Z,99055.20
2024-04-30T16:20:06.891Z,99053.41
2024-04-30T16:22:33.302Z,99054.07
2024-04-30T16:24:59.733Z,99051.79
2024-04-30T16:27:26.173Z,99051.79
2024-04-30T16:29:52.591Z,99049.98
2024-04-30T16:32:19.656Z,99052.52
2024-04-30T16:34:46.130Z,99054.19
2024-04-30T16:37:12.669Z,99049.25
2024-04-30T16:39:39.175Z,99050.13
2024-04-30T16:42:06.359Z,99042.73
2024-04-30T16:44:41.087Z,99043.50
2024-04-30T16:47:11.740Z,99037.36
2024-04-30T16:49:38.329Z,99035.51
2024-04-30T16:52:04.748Z,99032.42
2024-04-30T16:54:31.169Z,99029.05
2024-04-30T16:56:57.723Z,99024.66
2024-04-30T16:59:23.979Z,99022.30
2024-04-30T17:01:51.687Z,99017.90
2024-04-30T17:04:20.789Z,99022.35
2024-04-30T17:06:48.518Z,99017.70
2024-04-30T17:09:16.922Z,99016.17
2024-04-30T17:11:46.489Z,99015.25
2024-04-30T17:14:13.635Z,99017.45
2024-04-30T17:16:40.089Z,99016.02
2024-04-30T17:19:09.500Z,99014.95
2024-04-30T17:21:45.910Z,99011.27
2024-04-30T17:24:13.453Z,99008.85
2024-04-30T17:26:44.949Z,99003.70
2024-04-30T17:29:14.688Z,99004.98
2024-04-30T17:31:41.527Z,99003.20
2024-04-30T17:34:09.207Z,99006.65
2024-04-30T17:36:44.476Z,99012.45
2024-04-30T17:39:13.456Z,99010.12
2024-04-30T17:41:40.030Z,99012.02
2024-04-30T17:44:06.814Z,99010.10
2024-04-30T17:46:33.713Z,99011.13
2024-04-30T17:49:00.084Z,99011.38
2024-04-30T17:51:26.677Z,99017.56
2024-04-30T17:53:53.121Z,99017.65
2024-04-30T17:56:20.147Z,99013.91
2024-04-30T17:58:47.028Z,99017.20
2024-04-30T18:01:16.916Z,99017.59
2024-04-30T18:03:54.369Z,99024.41
2024-04-30T18:06:21.515Z,99025.92
2024-04-30T18:08:48.958Z,99025.70
2024-04-30T18:11:16.543Z,99025.50
2024-04-30T18:13:46.821Z,99019.93
2024-04-30T18:16:16.352Z,99023.27
2024-04-30T18:18:43.395Z,99023.51
2024-04-30T18:21:15.350Z,99019.02
2024-04-30T18:23:41.786Z,99022.95
2024-04-30T18:26:10.581Z,99020.55
2024-04-30T18:28:55.966Z,99021.41
2024-04-30T18:31:23.671Z,99016.70
2024-04-30T18:33:52.447Z,99018.73
2024-04-30T18:36:19.875Z,99019.22
2024-04-30T18:38:46.457Z,99019.48
2024-04-30T18:41:20.837Z,99026.13
2024-04-30T18:43:54.243Z,99025.30
2024-04-30T18:46:21.635Z,99026.02
2024-04-30T18:48:48.461Z,99030.08
2024-04-30T18:51:17.184Z,99030.78
2024-04-30T18:53:43.555Z,99023.29
2024-04-30T18:56:13.514Z,99028.35
2024-04-30T18:58:39.833Z,99032.05
2024-04-30T19:01:06.333Z,99033.37
2024-04-30T19:03:33.666Z,99036.83
2024-04-30T19:06:00.522Z,99049.32
2024-04-30T19:08:26.872Z,99045.23
2024-04-30T19:10:53.292Z,99042.82
2024-04-30T19:13:19.888Z,99042.86
2024-04-30T19:15:46.932Z,99039.27
2024-04-30T19:18:13.429Z,99035.59
2024-04-30T19:20:40.106Z,99037.01
2024-04-30T19:23:06.534Z,99036.10
2024-04-30T19:25:33.063Z,99037.06
2024-04-30T19:28:00.890Z,99037.42
2024-04-30T19:30:27.387Z,99029.39
2024-04-30T19:32:54.012Z,99030.90
2024-04-30T19:35:20.576Z,99030.45
2024-04-30T19:37:46.973Z,99030.08
2024-04-30T19:40:13.332Z,99027.92
2024-04-30T19:42:39.746Z,99028.24
2024-04-30T19:45:07.007Z,99025.34
2024-04-30T19:47:33.428Z,99026.42
2024-04-30T19:49:59.908Z,99019.95
2024-04-30T19:52:26.334Z,99022.45
2024-04-30T19:54:52.816Z,99017.71
2024-04-30T19:57:19.456Z,99015.99
2024-04-30T19:59:46.817Z,99018.88
2024-04-30T20:02:13.235Z,99025.77
2024-04-30T20:04:39.826Z,99024.14
2024-04-30T20:07:06.369Z,99018.98
2024-04-30T20:09:32.827Z,99020.11
2024-04-30T20:11:59.273Z,99016.95
2024-04-30T20:14:26.793Z,99022.91
2024-04-30T20:16:53.298Z,99030.59
2024-04-30T20:19:20.034Z,99019.76
2024-04-30T20:21:47.240Z,99018.16
2024-04-30T20:24:13.885Z,99012.27
2024-04-30T20:26:40.271Z,99012.52
2024-04-30T20:29:08.643Z,99018.79
2024-04-30T20:31:35.094Z,99019.45
2024-04-30T20:34:01.555Z,99017.88
2024-04-30T20:36:28.855Z,99017.84
2024-04-30T20:38:55.387Z,99012.81
2024-04-30T20:41:22.311Z,99011.40
2024-04-30T20:43:48.766Z,99010.77
2024-04-30T20:46:20.055Z,99010.56
2024-04-30T20:48:47.204Z,99011.15
2024-04-30T20:51:13.743Z,99010.75
2024-04-30T20:53:43.758Z,99001.65
2024-04-30T20:56:10.600Z,98999.89
2024-04-30T20:58:39.239Z,99000.55
2024-04-30T21:01:05.720Z,98998.98
2024-04-30T21:03:32.432Z,99003.33
2024-04-30T21:06:00.556Z,99003.89
2024-04-30T21:08:26.953Z,98995.82
2024-04-30T21:10:53.619Z,98997.48
2024-04-30T21:13:20.017Z,98997.35
2024-04-30T21:15:46.442Z,98990.77
2024-04-30T21:18:12.990Z,98992.63
2024-04-30T21:20:39.584Z,98990.05
2024-04-30T21:23:06.009Z,98989.33
2024-04-30T21:25:33.046Z,98986.61
2024-04-30T21:27:59.491Z,98985.11
2024-04-30T21:30:26.159Z,98980.66
2024-04-30T21:32:52.537Z,98980.77
2024-04-30T21:35:19.592Z,98978.91
2024-04-30T21:37:45.909Z,98979.08
2024-04-30T21:40:12.301Z,98978.59
2024-04-30T21:42:38.913Z,98974.27
2024-04-30T21:45:05.556Z,98981.48
2024-04-30T21:47:32.388Z,98977.31
2024-04-30T21:49:58.861Z,98971.66
2024-04-30T21:52:25.248Z,98975.02
2024-04-30T21:54:51.664Z,98975.32
2024-04-30T21:57:18.267Z,98974.89
2024-04-30T21:59:44.644Z,98972.60
2024-04-30T22:02:10.980Z,98974.13
2024-04-30T22:04:39.451Z,98968.04
2024-04-30T22:07:06.027Z,98966.84
2024-04-30T22:09:32.458Z,98960.05
2024-04-30T22:11:58.849Z,98956.09
2024-04-30T22:14:25.204Z,98955.50
2024-04-30T22:16:51.665Z,98959.42
2024-04-30T22:19:18.072Z,98957.17
2024-04-30T22:21:47.053Z,98956.77
2024-04-30T22:24:13.524Z,98948.84
2024-04-30T22:26:40.039Z,98947.02
2024-04-30T22:29:06.363Z,98948.61
2024-04-30T22:31:33.665Z,98951.02
2024-04-30T22:34:00.083Z,98951.48
2024-04-30T22:36:26.845Z,98948.44
2024-04-30T22:38:53.216Z,98946.66
2024-04-30T22:41:19.546Z,98941.48
2024-04-30T22:43:45.909Z,98941.23
2024-04-30T22:46:13.688Z,98937.37
2024-04-30T22:48:40.284Z,98942.16
2024-04-30T22:51:06.859Z,98942.42
2024-04-30T22:53:40.831Z,98943.98
2024-04-30T22:56:14.120Z,98941.69
2024-04-30T22:58:40.453Z,98938.55
2024-04-30T23:01:06.884Z,98936.09
2024-04-30T23:03:33.372Z,98934.50
2024-04-30T23:05:59.723Z,98930.29
2024-04-30T23:08:26.016Z,98934.69
2024-04-30T23:10:52.610Z,98932.01
2024-04-30T23:13:19.026Z,98934.85
2024-04-30T23:15:45.395Z,98937.70
2024-04-30T23:18:12.376Z,98935.64
2024-04-30T23:20:38.902Z,98934.55
2024-04-30T23:23:05.282Z,98930.60
2024-04-30T23:25:31.659Z,98932.22
2024-04-30T23:27:58.079Z,98929.55
2024-04-30T23:30:24.492Z,98925.23
2024-04-30T23:32:50.916Z,98922.85
2024-04-30T23:35:17.261Z,98922.73
2024-04-30T23:37:43.576Z,98925.05
2024-04-30T23:40:10.097Z,98925.68
2024-04-30T23:42:40.440Z,98922.40
2024-04-30T23:45:07.095Z,98927.33
2024-04-30T23:47:33.424Z,98926.86
2024-04-30T23:49:59.737Z,98923.64
2024-04-30T23:52:26.055Z,98921.73
2024-04-30T23:54:52.468Z,98918.45
2024-04-30T23:57:18.802Z,98922.45
2024-04-30T23:59:45.186Z,98919.00
